Time;durP1;ratioP1;P1;durP2;ratioP2;P2;SDS_P1;SDS_P2;PMS_P1;PMS_P2;Temp;Humidity;BMP_temperature;BMP_pressure;BME280_temperature;BME280_humidity;BME280_pressure;Samples;Min_cycle;Max_cycle;Signal;HPM_P1;HPM_P2
2023/12/11 00:02:25;;;;;;;26.55;4.03;;;9.90;99.90;;;;;;5046595;28;20048;-78
2023/12/11 00:04:51;;;;;;;25.20;4.38;;;9.90;99.90;;;;;;5041247;28;20048;-78
2023/12/11 00:07:17;;;;;;;19.00;3.63;;;9.80;99.90;;;;;;5040850;28;20040;-78
2023/12/11 00:09:43;;;;;;;18.85;4.28;;;9.80;99.90;;;;;;5046858;28;20131;-78
2023/12/11 00:12:08;;;;;;;29.15;4.03;;;9.70;99.90;;;;;;5044580;28;20041;-78
2023/12/11 00:14:34;;;;;;;23.75;3.80;;;9.70;99.90;;;;;;5044319;28;20041;-78
2023/12/11 00:17:00;;;;;;;24.90;2.85;;;9.70;99.90;;;;;;5047897;28;20045;-78
2023/12/11 00:19:26;;;;;;;24.55;3.45;;;9.60;99.90;;;;;;5046991;28;20052;-78
2023/12/11 00:21:52;;;;;;;22.30;3.10;;;9.60;99.90;;;;;;5048288;28;20076;-78
2023/12/11 00:24:18;;;;;;;21.23;3.25;;;9.60;99.90;;;;;;5047307;28;20060;-79
2023/12/11 00:26:43;;;;;;;20.55;3.58;;;9.60;99.90;;;;;;5046824;28;20037;-78
2023/12/11 00:29:09;;;;;;;23.30;4.07;;;9.60;99.90;;;;;;5043386;28;20112;-78
2023/12/11 00:31:35;;;;;;;26.23;3.88;;;9.60;99.90;;;;;;5039184;28;20488;-78
2023/12/11 00:34:01;;;;;;;28.75;5.07;;;9.50;99.90;;;;;;5047033;28;20044;-78
2023/12/11 00:36:27;;;;;;;38.47;8.40;;;9.50;99.90;;;;;;5041047;28;20095;-78
2023/12/11 00:38:53;;;;;;;18.67;2.88;;;9.50;99.90;;;;;;5049878;28;20041;-78
2023/12/11 00:41:18;;;;;;;25.80;4.13;;;9.50;99.90;;;;;;5048482;28;20028;-77
2023/12/11 00:43:44;;;;;;;29.35;4.13;;;9.50;99.90;;;;;;5047545;28;20044;-78
2023/12/11 00:46:14;;;;;;;28.95;3.63;;;9.50;99.90;;;;;;5047875;28;20128;-78
2023/12/11 00:48:40;;;;;;;21.90;2.83;;;9.50;99.90;;;;;;5046694;28;20041;-78
2023/12/11 00:51:06;;;;;;;20.40;3.50;;;9.50;99.90;;;;;;5049114;28;20040;-78
2023/12/11 00:53:31;;;;;;;23.10;3.67;;;9.40;99.90;;;;;;5043963;28;20045;-78
2023/12/11 00:55:57;;;;;;;22.52;3.28;;;9.40;99.90;;;;;;5046659;28;20049;-78
2023/12/11 00:58:23;;;;;;;19.27;3.33;;;9.40;99.90;;;;;;5045761;28;20037;-78
2023/12/11 01:00:48;;;;;;;20.33;3.15;;;9.40;99.90;;;;;;5042891;28;20451;-78
2023/12/11 01:03:14;;;;;;;19.85;2.53;;;9.40;99.90;;;;;;5047846;28;20076;-78
2023/12/11 01:05:40;;;;;;;19.30;3.50;;;9.30;99.90;;;;;;5038742;28;20057;-78
2023/12/11 01:08:07;;;;;;;24.73;3.38;;;9.30;99.90;;;;;;5047489;28;20500;-78
2023/12/11 01:10:33;;;;;;;27.98;3.83;;;9.30;99.90;;;;;;5043354;28;20124;-78
2023/12/11 01:12:58;;;;;;;22.65;3.60;;;9.30;99.90;;;;;;5044763;28;20190;-78
2023/12/11 01:15:24;;;;;;;18.70;4.43;;;9.30;99.90;;;;;;5047309;28;20052;-78
2023/12/11 01:17:50;;;;;;;16.83;2.72;;;9.30;99.90;;;;;;5042203;28;20049;-78
2023/12/11 01:20:15;;;;;;;24.90;3.80;;;9.20;99.90;;;;;;5042063;28;20051;-78
2023/12/11 01:22:41;;;;;;;16.92;3.45;;;9.20;99.90;;;;;;5047359;28;20041;-78
2023/12/11 01:25:08;;;;;;;20.60;2.70;;;9.20;99.90;;;;;;5048014;28;20060;-78
2023/12/11 01:27:34;;;;;;;21.27;2.88;;;9.20;99.90;;;;;;5046199;28;20041;-78
2023/12/11 01:30:00;;;;;;;19.08;2.58;;;9.20;99.90;;;;;;5038060;28;20052;-78
2023/12/11 01:32:25;;;;;;;22.10;3.47;;;9.10;99.90;;;;;;5046062;28;20544;-78
2023/12/11 01:34:51;;;;;;;22.13;3.75;;;9.10;99.90;;;;;;5044973;28;20134;-78
2023/12/11 01:37:18;;;;;;;23.05;3.15;;;9.10;99.90;;;;;;5043589;28;20485;-77
2023/12/11 01:39:44;;;;;;;26.23;4.35;;;9.10;99.90;;;;;;5044683;28;20156;-78
2023/12/11 01:42:09;;;;;;;21.58;3.42;;;9.10;99.90;;;;;;5048943;28;20132;-78
2023/12/11 01:44:36;;;;;;;22.48;3.42;;;9.10;99.90;;;;;;5047004;28;20072;-78
2023/12/11 01:47:02;;;;;;;21.95;3.90;;;9.10;99.90;;;;;;5038649;28;20507;-78
2023/12/11 01:49:28;;;;;;;25.77;5.03;;;9.10;99.90;;;;;;5045164;28;20060;-78
2023/12/11 01:51:54;;;;;;;25.63;3.63;;;9.10;99.90;;;;;;5046507;28;20032;-78
2023/12/11 01:54:20;;;;;;;25.05;4.10;;;9.20;99.90;;;;;;5047078;28;20476;-78
2023/12/11 01:56:45;;;;;;;26.83;4.00;;;9.10;99.90;;;;;;5046083;28;20060;-78
2023/12/11 01:59:13;;;;;;;29.25;3.85;;;9.10;99.90;;;;;;5046536;28;20106;-78
2023/12/11 02:01:40;;;;;;;26.30;4.70;;;9.20;99.90;;;;;;5038253;28;20084;-78
2023/12/11 02:04:07;;;;;;;20.88;2.97;;;9.20;99.90;;;;;;5042605;28;20530;-78
2023/12/11 02:06:33;;;;;;;30.85;4.25;;;9.20;99.90;;;;;;5039489;28;20049;-78
2023/12/11 02:08:59;;;;;;;23.50;3.72;;;9.20;99.90;;;;;;5044924;28;20493;-78
2023/12/11 02:11:26;;;;;;;32.58;4.72;;;9.20;99.90;;;;;;5042784;28;20056;-78
2023/12/11 02:13:51;;;;;;;24.63;3.57;;;9.20;99.90;;;;;;5045100;28;20052;-78
2023/12/11 02:16:17;;;;;;;27.92;3.92;;;9.20;99.90;;;;;;5045703;28;20037;-78
2023/12/11 02:18:43;;;;;;;26.85;5.18;;;9.20;99.90;;;;;;5032993;28;20415;-78
2023/12/11 02:21:11;;;;;;;24.17;4.03;;;9.20;99.90;;;;;;5037261;28;20037;-78
2023/12/11 02:24:24;;;;;;;25.70;4.30;;;9.20;99.90;;;;;;5044032;28;20080;-78
2023/12/11 02:26:49;;;;;;;28.10;3.72;;;9.30;99.90;;;;;;5041066;28;20052;-78
2023/12/11 02:29:15;;;;;;;23.40;4.50;;;9.20;99.90;;;;;;5033517;28;20500;-78
2023/12/11 02:31:41;;;;;;;30.70;4.57;;;9.30;99.90;;;;;;5045497;28;20036;-78
2023/12/11 02:34:09;;;;;;;33.55;4.22;;;9.20;99.90;;;;;;5045035;28;20045;-78
2023/12/11 02:36:35;;;;;;;33.58;4.38;;;9.30;99.90;;;;;;5050435;28;20476;-78
2023/12/11 02:39:01;;;;;;;29.20;5.10;;;9.30;99.90;;;;;;5040967;28;20041;-78
2023/12/11 02:41:27;;;;;;;33.67;4.65;;;9.30;99.90;;;;;;5038237;28;20051;-78
2023/12/11 02:43:53;;;;;;;26.38;4.90;;;9.30;99.90;;;;;;5039783;28;20119;-77
2023/12/11 02:46:18;;;;;;;26.17;3.60;;;9.20;99.90;;;;;;5048128;28;20044;-78
2023/12/11 02:48:44;;;;;;;29.40;4.05;;;9.30;99.90;;;;;;5037221;28;20084;-78
2023/12/11 02:51:09;;;;;;;33.80;4.28;;;9.30;99.90;;;;;;5039653;28;20051;-78
2023/12/11 02:53:35;;;;;;;27.83;4.50;;;9.30;99.90;;;;;;5049782;28;20492;-78
2023/12/11 02:56:01;;;;;;;30.60;6.20;;;9.30;99.90;;;;;;5044116;28;20075;-78
2023/12/11 02:58:26;;;;;;;34.72;5.88;;;9.30;99.90;;;;;;5039505;28;20442;-78
2023/12/11 03:00:52;;;;;;;29.85;4.07;;;9.30;99.90;;;;;;5047423;28;20053;-78
2023/12/11 03:03:18;;;;;;;33.50;4.53;;;9.30;99.90;;;;;;5043483;28;20618;-77
2023/12/11 03:05:46;;;;;;;34.00;5.35;;;9.30;99.90;;;;;;5038634;28;20044;-78
2023/12/11 03:08:12;;;;;;;27.00;3.97;;;9.30;99.90;;;;;;5045810;28;20080;-77
2023/12/11 03:10:37;;;;;;;31.95;4.93;;;9.30;99.90;;;;;;5054340;28;20486;-77
2023/12/11 03:13:03;;;;;;;31.50;4.28;;;9.30;99.90;;;;;;5047996;28;20044;-77
2023/12/11 03:15:30;;;;;;;31.83;4.90;;;9.40;99.90;;;;;;5049595;28;20129;-77
2023/12/11 03:17:56;;;;;;;39.53;5.05;;;9.40;99.90;;;;;;5047141;28;20071;-77
2023/12/11 03:20:22;;;;;;;31.63;5.45;;;9.40;99.90;;;;;;5048362;28;20296;-77
2023/12/11 03:22:47;;;;;;;32.40;5.63;;;9.40;99.90;;;;;;5052931;28;20528;-77
2023/12/11 03:25:13;;;;;;;32.88;5.45;;;9.40;99.90;;;;;;5051214;28;20041;-77
2023/12/11 03:27:39;;;;;;;29.75;5.85;;;9.40;99.90;;;;;;5051698;28;20476;-77
2023/12/11 03:30:05;;;;;;;26.02;4.07;;;9.40;99.90;;;;;;5045866;28;20134;-77
2023/12/11 03:32:31;;;;;;;32.47;5.53;;;9.50;99.90;;;;;;5049678;28;20044;-77
2023/12/11 03:34:56;;;;;;;31.55;5.00;;;9.50;99.90;;;;;;5049023;28;20040;-77
2023/12/11 03:37:22;;;;;;;34.78;4.28;;;9.50;99.90;;;;;;5050649;28;20060;-77
2023/12/11 03:39:48;;;;;;;30.92;5.43;;;9.50;99.90;;;;;;5049782;28;20645;-77
2023/12/11 03:42:14;;;;;;;36.63;5.53;;;9.50;99.90;;;;;;5046358;28;20128;-78
2023/12/11 03:44:40;;;;;;;25.88;4.75;;;9.50;99.90;;;;;;5054650;28;20049;-78
2023/12/11 03:47:05;;;;;;;23.20;4.93;;;9.50;99.90;;;;;;5047332;28;20053;-77
2023/12/11 03:49:31;;;;;;;29.85;6.20;;;9.50;99.90;;;;;;5048719;28;20664;-77
2023/12/11 03:51:57;;;;;;;29.42;5.28;;;9.50;99.90;;;;;;5044803;28;20133;-77
2023/12/11 03:54:22;;;;;;;33.08;5.03;;;9.50;99.90;;;;;;5051337;28;20051;-77
2023/12/11 03:56:48;;;;;;;22.20;3.65;;;9.50;99.90;;;;;;5046160;28;20251;-77
2023/12/11 03:59:14;;;;;;;26.52;4.60;;;9.50;99.90;;;;;;5051018;28;20049;-77
2023/12/11 04:01:40;;;;;;;31.35;4.38;;;9.50;99.90;;;;;;5047641;28;20060;-77
2023/12/11 04:04:06;;;;;;;22.05;3.90;;;9.50;99.90;;;;;;5043918;28;20044;-77
2023/12/11 04:06:32;;;;;;;25.17;4.20;;;9.50;99.90;;;;;;5048082;28;20040;-78
2023/12/11 04:08:58;;;;;;;25.35;4.22;;;9.50;99.90;;;;;;5045671;28;20501;-77
2023/12/11 04:11:23;;;;;;;26.35;4.00;;;9.50;99.90;;;;;;5053186;28;20131;-78
2023/12/11 04:13:49;;;;;;;21.17;3.10;;;9.50;99.90;;;;;;5040330;28;20051;-78
2023/12/11 04:16:14;;;;;;;23.45;3.65;;;9.50;99.90;;;;;;5043652;28;20058;-78
2023/12/11 04:18:41;;;;;;;19.92;3.90;;;9.50;99.90;;;;;;5044046;28;20069;-78
2023/12/11 04:21:07;;;;;;;18.08;3.80;;;9.50;99.90;;;;;;5044314;28;20049;-78
2023/12/11 04:23:33;;;;;;;21.70;2.88;;;9.50;99.90;;;;;;5044943;28;20053;-78
2023/12/11 04:25:59;;;;;;;19.95;3.13;;;9.50;99.90;;;;;;5045228;28;20045;-78
2023/12/11 04:28:28;;;;;;;20.05;3.38;;;9.50;99.90;;;;;;5047747;28;20052;-78
2023/12/11 04:30:54;;;;;;;25.75;3.22;;;9.50;99.90;;;;;;5049732;28;20056;-78
2023/12/11 04:33:21;;;;;;;21.45;3.72;;;9.50;99.90;;;;;;5047850;28;20032;-78
2023/12/11 04:35:47;;;;;;;22.97;3.67;;;9.50;99.90;;;;;;5046520;28;20084;-78
2023/12/11 04:38:13;;;;;;;18.30;3.33;;;9.50;99.90;;;;;;5044627;28;20792;-77
2023/12/11 04:40:39;;;;;;;18.48;2.92;;;9.50;99.90;;;;;;5046230;28;20064;-78
2023/12/11 04:43:05;;;;;;;24.13;3.10;;;9.50;99.90;;;;;;5048164;28;20132;-78
2023/12/11 04:45:30;;;;;;;14.40;3.53;;;9.50;99.90;;;;;;5045762;28;20129;-78
2023/12/11 04:47:57;;;;;;;22.88;3.15;;;9.50;99.90;;;;;;5042226;28;20430;-78
2023/12/11 04:50:22;;;;;;;23.17;3.42;;;9.50;99.90;;;;;;5049214;28;20548;-77
2023/12/11 04:52:48;;;;;;;20.20;3.83;;;9.50;99.90;;;;;;5047742;28;20124;-78
2023/12/11 04:55:14;;;;;;;14.00;2.67;;;9.40;99.90;;;;;;5048498;28;20060;-78
2023/12/11 04:57:40;;;;;;;18.48;3.15;;;9.40;99.90;;;;;;5043714;28;20040;-78
2023/12/11 05:00:07;;;;;;;25.05;3.20;;;9.40;99.90;;;;;;5048762;28;20064;-78
2023/12/11 05:02:33;;;;;;;24.92;4.10;;;9.40;99.90;;;;;;5042416;28;20128;-77
2023/12/11 05:04:58;;;;;;;18.35;3.13;;;9.40;99.90;;;;;;5046317;28;20503;-78
2023/12/11 05:07:24;;;;;;;19.15;3.40;;;9.40;99.90;;;;;;5049623;28;20132;-77
2023/12/11 05:09:50;;;;;;;20.23;2.92;;;9.40;99.90;;;;;;5047718;28;20045;-77
2023/12/11 05:12:17;;;;;;;16.60;2.90;;;9.40;99.90;;;;;;5040722;28;20046;-78
2023/12/11 05:14:42;;;;;;;19.85;2.75;;;9.40;99.90;;;;;;5037580;28;20492;-77
2023/12/11 05:17:08;;;;;;;24.17;3.22;;;9.40;99.90;;;;;;5047035;28;20091;-78
2023/12/11 05:19:35;;;;;;;25.77;3.65;;;9.40;99.90;;;;;;5048229;28;20053;-78
2023/12/11 05:22:02;;;;;;;24.00;3.88;;;9.40;99.90;;;;;;5040604;28;20124;-78
2023/12/11 05:24:27;;;;;;;30.40;7.25;;;9.40;99.90;;;;;;5047752;28;20056;-77
2023/12/11 05:26:56;;;;;;;19.50;3.08;;;9.40;99.90;;;;;;5049738;28;20527;-77
2023/12/11 05:29:22;;;;;;;19.77;2.97;;;9.40;99.90;;;;;;5047026;28;20049;-78
2023/12/11 05:31:48;;;;;;;18.02;3.30;;;9.40;99.90;;;;;;5047032;28;20052;-77
2023/12/11 05:34:14;;;;;;;20.40;3.25;;;9.40;99.90;;;;;;5048060;28;20037;-78
2023/12/11 05:36:40;;;;;;;19.98;3.50;;;9.40;99.90;;;;;;5042986;28;20045;-78
2023/12/11 05:39:06;;;;;;;23.10;3.47;;;9.40;99.90;;;;;;5048624;28;20059;-78
2023/12/11 05:41:33;;;;;;;21.65;3.75;;;9.40;99.90;;;;;;5044212;28;20076;-78
2023/12/11 05:43:59;;;;;;;23.48;4.70;;;9.40;99.90;;;;;;5045368;28;20488;-77
2023/12/11 05:46:25;;;;;;;14.80;4.38;;;9.40;99.90;;;;;;5040682;28;20032;-77
2023/12/11 05:48:50;;;;;;;21.98;3.17;;;9.40;99.90;;;;;;5045668;28;20472;-77
2023/12/11 05:51:16;;;;;;;23.08;2.97;;;9.40;99.90;;;;;;5049638;28;20064;-77
2023/12/11 05:53:42;;;;;;;28.75;4.13;;;9.40;99.90;;;;;;5048318;28;20426;-77
2023/12/11 05:56:08;;;;;;;19.50;3.45;;;9.40;99.90;;;;;;5057249;28;20477;-77
2023/12/11 05:58:33;;;;;;;26.02;4.55;;;9.40;99.90;;;;;;5051004;28;20135;-76
2023/12/11 06:00:59;;;;;;;23.30;4.32;;;9.40;99.90;;;;;;5042943;28;20051;-76
2023/12/11 06:03:25;;;;;;;15.98;4.07;;;9.40;99.90;;;;;;5038803;28;20045;-77
2023/12/11 06:05:57;;;;;;;27.40;4.05;;;9.40;99.90;;;;;;5043578;28;20795;-77
2023/12/11 06:08:24;;;;;;;24.58;4.28;;;9.40;99.90;;;;;;5048002;28;20059;-77
2023/12/11 06:10:50;;;;;;;37.60;7.60;;;9.40;99.90;;;;;;5046353;28;20531;-77
2023/12/11 06:13:16;;;;;;;19.33;3.47;;;9.40;99.90;;;;;;5046175;28;20171;-77
2023/12/11 06:15:42;;;;;;;24.27;5.15;;;9.40;99.90;;;;;;5043009;28;20773;-77
2023/12/11 06:18:07;;;;;;;21.50;3.20;;;9.30;99.90;;;;;;5052910;28;20454;-76
2023/12/11 06:20:33;;;;;;;11.32;2.50;;;9.30;99.90;;;;;;5043272;28;21347;-77
2023/12/11 06:22:59;;;;;;;19.88;3.05;;;9.30;99.90;;;;;;5047887;28;20048;-77
2023/12/11 06:25:24;;;;;;;21.70;2.97;;;9.30;99.90;;;;;;5047891;28;20120;-77
2023/12/11 06:27:50;;;;;;;24.75;4.05;;;9.30;99.90;;;;;;5050666;28;20045;-77
2023/12/11 06:30:16;;;;;;;26.27;3.75;;;9.30;99.90;;;;;;5041820;28;20389;-77
2023/12/11 06:32:42;;;;;;;32.17;3.95;;;9.30;99.90;;;;;;5042599;28;20053;-77
2023/12/11 06:35:07;;;;;;;21.45;3.63;;;9.30;99.90;;;;;;5043202;28;20037;-77
2023/12/11 06:37:33;;;;;;;18.20;3.75;;;9.30;99.90;;;;;;5059923;28;20383;-77
2023/12/11 06:39:59;;;;;;;27.45;4.88;;;9.30;99.90;;;;;;5058706;28;20535;-78
2023/12/11 06:42:25;;;;;;;26.73;4.18;;;9.30;99.90;;;;;;5048070;28;20128;-77
2023/12/11 06:44:50;;;;;;;28.65;3.60;;;9.30;99.90;;;;;;5048034;28;20405;-78
2023/12/11 06:47:17;;;;;;;34.65;6.63;;;9.30;99.90;;;;;;5042286;28;20096;-78
2023/12/11 06:49:44;;;;;;;26.88;3.78;;;9.30;99.90;;;;;;5047175;28;20048;-78
2023/12/11 06:52:09;;;;;;;22.23;3.15;;;9.30;99.90;;;;;;5047544;28;20091;-78
2023/12/11 06:54:35;;;;;;;18.63;3.47;;;9.40;99.90;;;;;;5047180;28;20037;-78
2023/12/11 06:57:01;;;;;;;27.02;3.55;;;9.40;99.90;;;;;;5053566;28;20044;-78
2023/12/11 06:59:26;;;;;;;17.45;3.17;;;9.40;99.90;;;;;;5068664;28;20041;-78
2023/12/11 07:01:52;;;;;;;16.15;2.85;;;9.30;99.90;;;;;;5059246;28;20059;-75
2023/12/11 07:04:18;;;;;;;18.65;2.78;;;9.40;99.90;;;;;;5035825;28;20053;-77
2023/12/11 07:06:44;;;;;;;24.77;4.13;;;9.40;99.90;;;;;;5036826;28;20408;-77
2023/12/11 07:09:10;;;;;;;36.53;6.60;;;9.40;99.90;;;;;;5038739;28;20040;-76
2023/12/11 07:11:36;;;;;;;16.60;2.65;;;9.40;99.90;;;;;;5041841;28;20049;-76
2023/12/11 07:14:02;;;;;;;19.85;3.03;;;9.40;99.90;;;;;;5047107;28;20084;-76
2023/12/11 07:16:27;;;;;;;42.03;7.65;;;9.40;99.90;;;;;;5042427;28;20072;-76
2023/12/11 07:18:53;;;;;;;21.90;4.30;;;9.40;99.90;;;;;;5042979;28;20167;-76
2023/12/11 07:21:19;;;;;;;20.92;3.38;;;9.40;99.90;;;;;;5040778;28;20096;-76
2023/12/11 07:23:48;;;;;;;18.65;3.55;;;9.40;99.90;;;;;;5049362;28;20103;-76
2023/12/11 07:26:13;;;;;;;20.60;3.30;;;9.40;99.90;;;;;;5035194;28;20048;-77
2023/12/11 07:28:39;;;;;;;27.40;3.60;;;9.40;99.90;;;;;;5065500;28;20045;-77
2023/12/11 07:31:06;;;;;;;29.38;5.07;;;9.40;99.90;;;;;;5035274;28;20037;-76
2023/12/11 07:33:32;;;;;;;20.58;3.00;;;9.40;99.90;;;;;;5040120;28;20077;-77
2023/12/11 07:35:58;;;;;;;23.67;3.10;;;9.40;99.90;;;;;;5042747;28;20037;-77
2023/12/11 07:38:25;;;;;;;24.52;3.05;;;9.40;99.90;;;;;;5050965;28;20037;-77
2023/12/11 07:40:54;;;;;;;17.30;2.50;;;9.30;99.90;;;;;;5042320;28;20049;-76
2023/12/11 07:43:20;;;;;;;23.65;3.13;;;9.30;99.90;;;;;;5056062;28;20481;-76
2023/12/11 07:45:45;;;;;;;18.20;3.28;;;9.30;99.90;;;;;;5038170;28;20056;-77
2023/12/11 07:48:11;;;;;;;27.58;3.00;;;9.30;99.90;;;;;;5038702;28;20049;-76
2023/12/11 07:50:37;;;;;;;18.50;3.67;;;9.30;99.90;;;;;;5039593;28;20048;-77
2023/12/11 07:53:03;;;;;;;15.45;3.10;;;9.30;99.90;;;;;;5032666;28;20051;-77
2023/12/11 07:55:29;;;;;;;17.92;2.45;;;9.30;99.90;;;;;;5049843;28;20102;-76
2023/12/11 07:57:55;;;;;;;23.52;3.05;;;9.20;99.90;;;;;;5048286;28;20068;-77
2023/12/11 08:00:21;;;;;;;21.92;2.70;;;9.20;99.90;;;;;;5039379;28;20083;-77
2023/12/11 08:02:47;;;;;;;20.88;3.03;;;9.20;99.90;;;;;;5035563;28;20044;-77
2023/12/11 08:05:13;;;;;;;21.85;3.00;;;9.20;99.90;;;;;;5044153;28;20044;-77
2023/12/11 08:07:39;;;;;;;20.13;2.55;;;9.20;99.90;;;;;;5046514;28;20567;-77
2023/12/11 08:10:05;;;;;;;14.63;2.22;;;9.20;99.90;;;;;;5047050;28;20537;-77
2023/12/11 08:12:32;;;;;;;13.68;2.20;;;9.20;99.90;;;;;;5032730;28;20811;-76
2023/12/11 08:14:58;;;;;;;10.05;2.08;;;9.30;99.90;;;;;;5044622;28;20534;-76
2023/12/11 08:17:24;;;;;;;13.43;2.22;;;9.20;99.90;;;;;;5038344;28;20092;-77
2023/12/11 08:19:50;;;;;;;15.45;2.63;;;9.30;99.90;;;;;;5040932;28;20036;-78
2023/12/11 08:22:16;;;;;;;13.35;2.70;;;9.30;99.90;;;;;;5045399;28;20044;-77
2023/12/11 08:24:42;;;;;;;13.93;2.15;;;9.30;99.90;;;;;;5039542;28;20519;-77
2023/12/11 08:27:08;;;;;;;11.40;2.33;;;9.20;99.90;;;;;;5045905;28;20041;-76
2023/12/11 08:29:35;;;;;;;17.83;2.17;;;9.20;99.90;;;;;;5056034;28;20492;-78
2023/12/11 08:32:02;;;;;;;10.88;2.17;;;9.30;99.90;;;;;;5051853;28;20040;-76
2023/12/11 08:34:28;;;;;;;;;;;9.30;99.90;;;;;;5043959;28;20508;-81
2023/12/11 08:36:54;;;;;;;12.45;2.75;;;9.30;99.90;;;;;;5046470;28;19978;-80
2023/12/11 08:39:20;;;;;;;8.32;2.08;;;9.20;99.90;;;;;;5066482;28;20519;-80
2023/12/11 08:41:47;;;;;;;10.48;2.15;;;9.20;99.90;;;;;;5050364;28;20519;-82
2023/12/11 08:44:13;;;;;;;;;;;9.20;99.90;;;;;;5043348;28;20053;-81
2023/12/11 08:46:39;;;;;;;7.43;2.08;;;9.20;99.90;;;;;;5049547;28;19966;-80
2023/12/11 08:49:04;;;;;;;10.75;2.08;;;9.20;99.90;;;;;;5035796;28;20512;-82
2023/12/11 08:51:30;;;;;;;10.02;2.05;;;9.20;99.90;;;;;;5045292;28;20040;-80
2023/12/11 08:53:56;;;;;;;7.40;1.77;;;9.30;99.90;;;;;;5045521;28;20109;-79
2023/12/11 08:56:23;;;;;;;11.05;1.98;;;9.20;99.90;;;;;;5049975;28;20078;-79
2023/12/11 08:58:50;;;;;;;9.07;2.20;;;9.20;99.90;;;;;;5042730;28;20437;-79
2023/12/11 09:01:15;;;;;;;5.38;1.55;;;9.30;99.90;;;;;;5049947;28;20100;-80
2023/12/11 09:03:42;;;;;;;10.90;1.75;;;9.30;99.90;;;;;;5049351;28;20511;-79
2023/12/11 09:06:08;;;;;;;3.08;1.05;;;9.30;99.90;;;;;;5049397;28;20045;-81
2023/12/11 09:08:34;;;;;;;8.15;1.48;;;9.30;99.90;;;;;;5051938;28;20483;-78
2023/12/11 09:11:00;;;;;;;5.78;1.25;;;9.20;99.90;;;;;;5046832;28;20033;-77
2023/12/11 09:13:26;;;;;;;3.22;1.00;;;9.20;99.90;;;;;;5057654;28;20052;-82
2023/12/11 09:15:51;;;;;;;5.13;1.40;;;9.30;99.90;;;;;;5046488;28;20112;-82
2023/12/11 09:18:17;;;;;;;4.32;1.23;;;9.20;99.90;;;;;;5050915;28;20077;-78
2023/12/11 09:20:43;;;;;;;2.95;1.17;;;9.20;99.90;;;;;;5031403;28;20045;-79
2023/12/11 09:23:09;;;;;;;7.40;1.20;;;9.20;99.90;;;;;;5038712;28;20049;-82
2023/12/11 09:25:36;;;;;;;3.08;0.90;;;9.20;99.90;;;;;;5044449;28;20052;-82
2023/12/11 09:28:04;;;;;;;3.43;1.03;;;9.20;99.90;;;;;;5040309;28;20045;-82
2023/12/11 09:30:30;;;;;;;7.90;1.73;;;9.20;99.90;;;;;;5049151;28;20045;-82
2023/12/11 09:32:56;;;;;;;3.85;1.23;;;9.20;99.90;;;;;;5050248;28;20136;-84
2023/12/11 09:35:22;;;;;;;6.60;1.55;;;9.20;99.90;;;;;;5038981;28;20046;-83
2023/12/11 09:37:47;;;;;;;5.18;1.45;;;9.20;99.90;;;;;;5046625;28;20046;-85
2023/12/11 09:40:13;;;;;;;10.70;1.90;;;9.20;99.90;;;;;;5034644;28;20049;-84
2023/12/11 09:42:43;;;;;;;13.38;2.63;;;9.20;99.90;;;;;;5047240;28;20124;-84
2023/12/11 09:45:12;;;;;;;8.45;2.60;;;9.20;99.90;;;;;;5046734;28;20045;-81
2023/12/11 09:47:45;;;;;;;16.05;2.65;;;9.30;99.90;;;;;;5050814;28;20045;-81
2023/12/11 09:50:13;;;;;;;10.75;2.65;;;9.30;99.90;;;;;;5046225;28;20094;-82
2023/12/11 09:52:40;;;;;;;15.70;3.42;;;9.30;99.90;;;;;;5041839;28;20044;-82
2023/12/11 09:55:07;;;;;;;10.40;2.60;;;9.30;99.90;;;;;;5046304;28;20053;-82
2023/12/11 09:57:34;;;;;;;17.20;3.25;;;9.40;99.90;;;;;;5042431;28;20053;-83
2023/12/11 10:00:00;;;;;;;16.13;2.88;;;9.40;99.90;;;;;;5045986;28;20135;-80
2023/12/11 10:02:27;;;;;;;12.30;2.67;;;9.40;99.90;;;;;;5038571;28;20048;-83
2023/12/11 10:05:09;;;;;;;20.00;3.22;;;9.40;99.90;;;;;;5044906;28;20049;-81
2023/12/11 10:07:42;;;;;;;20.17;2.90;;;9.40;99.90;;;;;;5048951;28;20407;-82
2023/12/11 10:10:26;;;;;;;22.98;5.20;;;9.40;99.90;;;;;;5042766;28;20059;-81
2023/12/11 10:12:54;;;;;;;17.83;2.58;;;9.50;99.90;;;;;;5040105;28;20409;-80
2023/12/11 10:15:24;;;;;;;14.13;2.75;;;9.50;99.90;;;;;;5049053;28;20474;-84
2023/12/11 10:18:12;;;;;;;9.15;2.10;;;9.50;99.90;;;;;;5042844;28;20042;-90
2023/12/11 10:20:40;;;;;;;9.02;2.13;;;9.40;99.90;;;;;;5043366;28;20049;-83
2023/12/11 10:23:15;;;;;;;12.60;2.20;;;9.40;99.90;;;;;;5025422;28;20045;-83
2023/12/11 10:25:44;;;;;;;6.72;1.92;;;9.40;99.90;;;;;;5038470;28;20061;-81
2023/12/11 10:28:14;;;;;;;9.07;1.88;;;9.40;99.90;;;;;;5047284;28;20102;-79
2023/12/11 10:30:55;;;;;;;8.20;2.03;;;9.40;99.90;;;;;;5043661;28;20114;-79
2023/12/11 10:33:24;;;;;;;13.73;1.90;;;9.50;99.90;;;;;;5038481;28;20557;-79
2023/12/11 10:35:50;;;;;;;11.93;1.88;;;9.50;99.90;;;;;;5039240;28;20095;-78
2023/12/11 10:38:24;;;;;;;10.17;1.50;;;9.60;99.90;;;;;;5033007;28;20443;-77
2023/12/11 10:40:51;;;;;;;14.35;2.97;;;9.60;99.90;;;;;;5037989;28;20770;-79
2023/12/11 10:43:17;;;;;;;6.60;1.57;;;9.60;99.90;;;;;;5043309;28;20123;-78
2023/12/11 10:45:44;;;;;;;13.73;1.75;;;9.60;99.90;;;;;;5034358;28;20052;-81
2023/12/11 10:48:10;;;;;;;8.35;1.73;;;9.60;99.90;;;;;;5046782;28;20044;-82
2023/12/11 10:50:36;;;;;;;9.38;1.92;;;9.70;99.90;;;;;;5031791;28;20048;-81
2023/12/11 10:53:03;;;;;;;15.43;1.73;;;9.60;99.90;;;;;;5039828;28;20124;-82
2023/12/11 10:55:29;;;;;;;13.75;2.20;;;9.60;99.90;;;;;;5043713;28;20076;-81
2023/12/11 10:57:57;;;;;;;19.52;2.90;;;9.60;99.90;;;;;;5049960;28;20099;-80
2023/12/11 11:00:23;;;;;;;10.95;2.97;;;9.50;99.90;;;;;;5043304;28;20438;-79
2023/12/11 11:02:53;;;;;;;12.75;1.92;;;9.50;99.90;;;;;;5039589;28;20481;-80
2023/12/11 11:05:20;;;;;;;11.60;2.80;;;9.50;99.90;;;;;;5040421;28;20532;-84
2023/12/11 11:08:14;;;;;;;15.65;2.13;;;9.60;99.90;;;;;;5034597;28;20091;-81
2023/12/11 11:10:51;;;;;;;13.77;2.08;;;9.60;99.90;;;;;;5048334;28;20057;-83
2023/12/11 11:13:16;;;;;;;17.30;3.20;;;9.60;99.90;;;;;;5042664;28;20045;-79
2023/12/11 11:15:42;;;;;;;15.07;2.10;;;9.50;99.90;;;;;;5043898;28;20416;-80
2023/12/11 11:18:10;;;;;;;10.60;2.15;;;9.60;99.90;;;;;;5044679;28;20045;-77
2023/12/11 11:20:37;;;;;;;15.30;2.03;;;9.60;99.90;;;;;;5046443;28;20041;-81
2023/12/11 11:23:15;;;;;;;12.73;2.42;;;9.50;99.90;;;;;;5046920;28;20044;-81
2023/12/11 11:25:42;;;;;;;12.20;1.52;;;9.50;99.90;;;;;;5030970;28;20041;-79
2023/12/11 11:28:41;;;;;;;12.77;1.60;;;9.40;99.90;;;;;;5045850;28;20049;-80
2023/12/11 11:31:11;;;;;;;12.82;2.13;;;9.50;99.90;;;;;;5046421;28;20171;-80
2023/12/11 11:33:46;;;;;;;10.68;1.67;;;9.40;99.90;;;;;;5047068;28;20053;-80
2023/12/11 11:36:16;;;;;;;9.52;1.85;;;9.50;99.90;;;;;;5048481;28;20514;-83
2023/12/11 11:39:00;;;;;;;8.43;1.50;;;9.50;99.90;;;;;;5049688;28;20128;-81
2023/12/11 11:41:28;;;;;;;7.28;1.58;;;9.50;99.90;;;;;;5052437;28;20044;-79
2023/12/11 11:44:05;;;;;;;12.40;2.33;;;9.50;99.90;;;;;;5045917;28;20128;-82
2023/12/11 11:47:00;;;;;;;7.70;1.30;;;9.60;99.90;;;;;;5048688;28;20448;-82
2023/12/11 11:49:27;;;;;;;13.00;2.22;;;9.60;99.90;;;;;;5039104;28;20091;-79
2023/12/11 11:51:53;;;;;;;10.45;1.85;;;9.60;99.90;;;;;;5058565;28;20052;-79
2023/12/11 11:54:22;;;;;;;13.15;2.08;;;9.60;99.90;;;;;;5026425;28;20052;-78
2023/12/11 11:56:49;;;;;;;11.23;1.92;;;9.60;99.90;;;;;;5045892;28;20045;-79
2023/12/11 11:59:14;;;;;;;10.82;1.65;;;9.60;99.90;;;;;;5042982;28;20040;-78
2023/12/11 12:01:56;;;;;;;11.20;2.78;;;9.60;99.90;;;;;;5037723;28;20057;-79
2023/12/11 12:04:33;;;;;;;16.70;2.83;;;9.50;99.90;;;;;;5045475;28;20045;-78
2023/12/11 12:07:04;;;;;;;12.27;1.85;;;9.60;99.90;;;;;;5039349;28;20060;-78
2023/12/11 12:09:31;;;;;;;11.48;2.95;;;9.50;99.90;;;;;;5035773;28;20049;-81
2023/12/11 12:11:58;;;;;;;12.98;2.35;;;9.60;99.90;;;;;;5043950;28;20076;-81
2023/12/11 12:14:25;;;;;;;16.35;2.78;;;9.50;99.90;;;;;;5038090;28;20080;-81
2023/12/11 12:16:51;;;;;;;;;;;9.60;99.90;;;;;;5042082;28;20040;-80
2023/12/11 12:19:17;;;;;;;14.20;2.55;;;9.50;99.90;;;;;;5077414;28;19920;-80
2023/12/11 12:21:54;;;;;;;18.42;2.90;;;9.60;99.90;;;;;;5038567;28;20112;-80
2023/12/11 12:24:20;;;;;;;8.57;2.65;;;9.60;99.90;;;;;;5036065;28;20516;-81
2023/12/11 12:27:05;;;;;;;18.38;3.67;;;9.60;99.90;;;;;;5045935;28;20322;-81
2023/12/11 12:29:34;;;;;;;14.05;2.30;;;9.60;99.90;;;;;;5046479;28;20560;-80
2023/12/11 12:32:01;;;;;;;14.35;2.42;;;9.50;99.90;;;;;;5044296;28;20100;-80
2023/12/11 12:34:29;;;;;;;17.73;2.40;;;9.60;99.90;;;;;;5048479;28;20085;-80
2023/12/11 12:36:56;;;;;;;14.68;3.22;;;9.60;99.90;;;;;;5047233;28;20045;-77
2023/12/11 12:39:22;;;;;;;16.30;2.47;;;9.60;99.90;;;;;;5048676;28;20045;-78
2023/12/11 12:41:50;;;;;;;13.00;2.03;;;9.60;99.90;;;;;;5049969;28;20032;-79
2023/12/11 12:44:20;;;;;;;10.45;1.92;;;9.60;99.90;;;;;;5049516;28;20053;-78
2023/12/11 12:46:47;;;;;;;15.05;2.67;;;9.60;99.90;;;;;;5060710;28;20041;-78
2023/12/11 12:49:15;;;;;;;11.60;1.65;;;9.60;99.90;;;;;;5034443;28;20378;-79